createdAt,value
2024-01-06T00:00:13.183Z,4.2
2024-01-06T00:10:16.878Z,3.8
2024-01-06T00:20:14.173Z,4.1
2024-01-06T00:30:14.817Z,4
2024-01-06T00:40:15.057Z,4.7
2024-01-06T00:50:15.538Z,4.3
2024-01-06T01:00:15.918Z,5
2024-01-06T01:10:16.357Z,4.7
2024-01-06T01:20:16.771Z,5
2024-01-06T01:30:17.268Z,5.6
2024-01-06T01:40:17.506Z,6.7
2024-01-06T01:50:17.922Z,6
2024-01-06T02:00:18.470Z,6.3
2024-01-06T02:10:18.704Z,5.7
2024-01-06T02:20:19.056Z,7
2024-01-06T02:30:19.491Z,7
2024-01-06T02:40:19.909Z,6.3
2024-01-06T02:50:20.401Z,6.3
2024-01-06T03:00:20.788Z,6.8
2024-01-06T03:10:21.057Z,7.3
2024-01-06T03:20:21.548Z,6.9
2024-01-06T03:30:21.920Z,7.4
2024-01-06T03:40:22.252Z,6.7
2024-01-06T03:50:22.700Z,6.3
2024-01-06T04:00:23.105Z,7.9
2024-01-06T04:10:23.384Z,7.1
2024-01-06T04:20:23.684Z,7.2
2024-01-06T04:30:24.021Z,6.7
2024-01-06T04:40:24.145Z,6.8
2024-01-06T04:50:24.435Z,6.1
2024-01-06T05:00:24.831Z,6.2
2024-01-06T05:10:25.096Z,5.9
2024-01-06T05:20:25.590Z,4.6
2024-01-06T05:30:26.019Z,5.6
2024-01-06T05:40:26.273Z,4.9
2024-01-06T05:50:26.638Z,5.4
2024-01-06T06:00:27.055Z,4.7
2024-01-06T06:10:27.374Z,4.7
2024-01-06T06:20:27.700Z,4.8
2024-01-06T06:30:28.210Z,4.3
2024-01-06T06:40:28.425Z,3.9
2024-01-06T06:50:28.712Z,4.9
2024-01-06T07:00:29.091Z,4.7
2024-01-06T07:10:29.352Z,4.2
2024-01-06T07:20:29.698Z,4
2024-01-06T07:30:30.058Z,4.3
2024-01-06T07:40:30.243Z,4.5
2024-01-06T07:50:32.990Z,4.3
2024-01-06T08:00:30.928Z,4.4
2024-01-06T08:10:31.125Z,4.3
2024-01-06T08:20:31.397Z,5.5
2024-01-06T08:30:31.743Z,4.8
2024-01-06T08:40:31.928Z,4.8
2024-01-06T08:50:32.220Z,4.4
2024-01-06T09:00:32.533Z,5.1
2024-01-06T09:10:32.803Z,4.3
2024-01-06T09:20:33.163Z,4.6
2024-01-06T09:30:33.556Z,4.9
2024-01-06T09:40:33.833Z,4.5
2024-01-06T09:50:34.214Z,5.7
2024-01-06T10:00:34.549Z,4.9
2024-01-06T10:10:34.830Z,5.1
2024-01-06T10:20:35.200Z,4.2
2024-01-06T10:30:35.694Z,4.4
2024-01-06T10:40:36.000Z,3.9
2024-01-06T10:50:36.415Z,4.2
2024-01-06T11:00:36.919Z,3.8
2024-01-06T11:10:37.292Z,4.3
2024-01-06T11:20:37.747Z,3.8
2024-01-06T11:30:38.414Z,4
2024-01-06T11:40:38.627Z,3.6
2024-01-06T11:50:39.177Z,3.5
2024-01-06T12:00:39.699Z,3
2024-01-06T12:10:40.143Z,3.1
2024-01-06T12:20:40.604Z,3.6
2024-01-06T12:30:41.298Z,2.4
2024-01-06T12:40:41.780Z,2.3
2024-01-06T12:50:42.415Z,2
2024-01-06T13:00:43.123Z,2
2024-01-06T13:10:43.872Z,2.6
2024-01-06T13:20:45.505Z,1.5
2024-01-06T13:30:45.124Z,1.6
2024-01-06T13:40:45.784Z,1.6
2024-01-06T13:50:47.639Z,1.4
2024-01-06T14:00:47.362Z,1.6
2024-01-06T14:10:48.170Z,1.5
2024-01-06T14:20:49.104Z,1.8
2024-01-06T14:30:50.028Z,1.5
2024-01-06T14:40:50.818Z,1.7
2024-01-06T14:50:51.762Z,1
2024-01-06T15:00:52.744Z,2
2024-01-06T15:07:04.576Z,2
2024-01-06T15:10:53.614Z,2.4
2024-01-06T15:20:54.507Z,2.1
2024-01-06T15:30:55.581Z,2
2024-01-06T15:40:56.471Z,1.7
2024-01-06T15:50:57.399Z,2.5
2024-01-06T16:00:58.444Z,2.2
2024-01-06T16:10:59.382Z,1.8
2024-01-06T16:21:00.354Z,2.3
2024-01-06T16:31:01.493Z,4.3
2024-01-06T16:41:02.412Z,2.4
2024-01-06T16:51:03.503Z,1.7
2024-01-06T17:01:04.734Z,1.7
2024-01-06T17:11:05.817Z,2
2024-01-06T17:21:06.953Z,2.1
2024-01-06T17:31:08.151Z,2.2
2024-01-06T17:41:09.230Z,2
2024-01-06T17:51:10.345Z,2.2
2024-01-06T18:01:11.486Z,2.2
2024-01-06T18:11:12.522Z,1.8
2024-01-06T18:21:13.657Z,2.3
2024-01-06T18:31:14.908Z,2.7
2024-01-06T18:41:15.919Z,2.5
2024-01-06T18:51:17.036Z,2.5
2024-01-06T19:01:18.292Z,3.4
2024-01-06T19:11:19.359Z,3.7
2024-01-06T19:21:20.696Z,3.6
2024-01-06T19:31:21.568Z,3.8
2024-01-06T19:41:22.657Z,3.8
2024-01-06T19:51:23.811Z,4.1
2024-01-06T20:01:25.021Z,3.5
2024-01-06T20:11:26.058Z,3.4
2024-01-06T20:21:27.196Z,4.4
2024-01-06T20:31:28.368Z,3.7
2024-01-06T20:41:29.385Z,3.1
2024-01-06T20:51:30.538Z,3.6
2024-01-06T21:01:31.834Z,3.4
2024-01-06T21:11:32.892Z,3.9
2024-01-06T21:21:34.160Z,3.5
2024-01-06T21:31:35.421Z,2.5
2024-01-06T21:41:36.622Z,1.2
2024-01-06T21:51:37.975Z,1.1
2024-01-06T22:01:39.344Z,0.9
2024-01-06T22:11:40.519Z,0.9
2024-01-06T22:21:44.181Z,0.6
2024-01-06T22:31:43.091Z,0.6
2024-01-06T22:41:44.289Z,0.9
2024-01-06T22:51:45.635Z,0.7
2024-01-06T23:01:46.999Z,1.4
2024-01-06T23:11:49.624Z,0.9
2024-01-06T23:21:49.709Z,1.1
2024-01-06T23:31:24.834Z,1.1
2024-01-06T23:31:51.005Z,1.3
2024-01-06T23:33:20.824Z,1.3
2024-01-06T23:36:46.123Z,1.3
2024-01-06T23:37:10.130Z,1.3
2024-01-06T23:39:13.981Z,1.3
2024-01-06T23:41:52.365Z,1.2
2024-01-06T23:51:53.751Z,1.4
